sensor_id;sensor_type;location;lat;lon;timestamp;P1;P2;P0
45700;PMS5003;36277;32.852;-116.998;2023-01-19T00:02:25;10.00;10.00;6.20
45700;PMS5003;36277;32.852;-116.998;2023-01-19T00:04:52;11.00;11.00;6.40
45700;PMS5003;36277;32.852;-116.998;2023-01-19T00:07:18;9.80;9.80;6.00
45700;PMS5003;36277;32.852;-116.998;2023-01-19T00:09:44;10.20;10.20;6.00
45700;PMS5003;36277;32.852;-116.998;2023-01-19T00:12:10;9.80;9.80;6.00
45700;PMS5003;36277;32.852;-116.998;2023-01-19T00:14:37;8.60;8.60;4.40
45700;PMS5003;36277;32.852;-116.998;2023-01-19T00:17:03;8.60;8.60;5.00
45700;PMS5003;36277;32.852;-116.998;2023-01-19T00:19:29;9.60;9.20;5.60
45700;PMS5003;36277;32.852;-116.998;2023-01-19T00:21:55;8.80;8.80;5.00
45700;PMS5003;36277;32.852;-116.998;2023-01-19T00:24:22;7.80;7.80;5.00
45700;PMS5003;36277;32.852;-116.998;2023-01-19T00:26:48;9.00;8.20;4.20
45700;PMS5003;36277;32.852;-116.998;2023-01-19T00:29:14;4.40;4.40;3.80
45700;PMS5003;36277;32.852;-116.998;2023-01-19T00:31:41;8.60;8.00;4.40
45700;PMS5003;36277;32.852;-116.998;2023-01-19T00:34:07;8.80;8.80;5.80
45700;PMS5003;36277;32.852;-116.998;2023-01-19T00:36:33;6.40;6.40;4.00
45700;PMS5003;36277;32.852;-116.998;2023-01-19T00:39:00;6.00;6.00;4.00
45700;PMS5003;36277;32.852;-116.998;2023-01-19T00:41:26;6.40;6.40;4.60
45700;PMS5003;36277;32.852;-116.998;2023-01-19T00:44:10;6.80;6.80;3.80
45700;PMS5003;36277;32.852;-116.998;2023-01-19T00:46:37;10.00;10.00;6.00
45700;PMS5003;36277;32.852;-116.998;2023-01-19T00:49:04;7.00;7.00;4.00
45700;PMS5003;36277;32.852;-116.998;2023-01-19T00:51:30;6.20;6.20;3.60
45700;PMS5003;36277;32.852;-116.998;2023-01-19T00:53:57;6.60;6.40;4.00
45700;PMS5003;36277;32.852;-116.998;2023-01-19T00:56:31;6.60;6.60;4.00
45700;PMS5003;36277;32.852;-116.998;2023-01-19T00:58:58;7.00;7.00;5.00
45700;PMS5003;36277;32.852;-116.998;2023-01-19T01:01:24;6.00;6.00;3.60
45700;PMS5003;36277;32.852;-116.998;2023-01-19T01:03:51;5.00;5.00;3.40
45700;PMS5003;36277;32.852;-116.998;2023-01-19T01:06:20;2.00;2.00;0.00
45700;PMS5003;36277;32.852;-116.998;2023-01-19T01:08:46;4.80;4.80;3.00
45700;PMS5003;36277;32.852;-116.998;2023-01-19T01:11:13;5.00;5.00;3.00
45700;PMS5003;36277;32.852;-116.998;2023-01-19T01:13:39;7.00;7.00;4.00
45700;PMS5003;36277;32.852;-116.998;2023-01-19T01:16:05;5.00;5.00;3.60
45700;PMS5003;36277;32.852;-116.998;2023-01-19T01:18:34;5.00;5.00;3.00
45700;PMS5003;36277;32.852;-116.998;2023-01-19T01:21:04;3.00;3.00;2.00
45700;PMS5003;36277;32.852;-116.998;2023-01-19T01:23:31;4.60;4.60;3.40
45700;PMS5003;36277;32.852;-116.998;2023-01-19T01:25:58;4.00;4.00;3.00
45700;PMS5003;36277;32.852;-116.998;2023-01-19T01:28:24;5.60;5.40;3.60
45700;PMS5003;36277;32.852;-116.998;2023-01-19T01:30:52;3.60;3.60;2.60
45700;PMS5003;36277;32.852;-116.998;2023-01-19T01:33:19;4.40;4.40;3.00
45700;PMS5003;36277;32.852;-116.998;2023-01-19T01:35:47;6.40;6.40;3.80
45700;PMS5003;36277;32.852;-116.998;2023-01-19T01:38:14;5.60;5.60;3.40
45700;PMS5003;36277;32.852;-116.998;2023-01-19T01:40:41;5.00;5.00;3.20
45700;PMS5003;36277;32.852;-116.998;2023-01-19T01:43:18;4.00;4.00;3.00
45700;PMS5003;36277;32.852;-116.998;2023-01-19T01:45:45;6.40;6.40;3.60
45700;PMS5003;36277;32.852;-116.998;2023-01-19T01:50:54;2.40;2.40;1.00
45700;PMS5003;36277;32.852;-116.998;2023-01-19T01:53:44;4.00;4.00;2.40
45700;PMS5003;36277;32.852;-116.998;2023-01-19T01:56:13;4.00;4.00;2.00
45700;PMS5003;36277;32.852;-116.998;2023-01-19T01:58:45;4.00;4.00;3.00
45700;PMS5003;36277;32.852;-116.998;2023-01-19T02:01:12;3.00;3.00;2.60
45700;PMS5003;36277;32.852;-116.998;2023-01-19T02:03:56;4.60;4.60;2.60
45700;PMS5003;36277;32.852;-116.998;2023-01-19T02:06:24;4.80;4.80;2.60
45700;PMS5003;36277;32.852;-116.998;2023-01-19T02:11:45;1.20;1.20;0.40
45700;PMS5003;36277;32.852;-116.998;2023-01-19T02:14:30;3.40;3.40;3.00
45700;PMS5003;36277;32.852;-116.998;2023-01-19T02:16:57;3.60;3.60;2.60
45700;PMS5003;36277;32.852;-116.998;2023-01-19T02:19:24;4.00;4.00;3.00
45700;PMS5003;36277;32.852;-116.998;2023-01-19T02:22:04;3.80;3.80;2.20
45700;PMS5003;36277;32.852;-116.998;2023-01-19T02:24:37;3.20;3.20;3.00
45700;PMS5003;36277;32.852;-116.998;2023-01-19T02:27:04;4.40;4.40;3.00
45700;PMS5003;36277;32.852;-116.998;2023-01-19T02:29:32;3.80;3.80;2.60
45700;PMS5003;36277;32.852;-116.998;2023-01-19T02:31:59;3.60;3.60;3.00
45700;PMS5003;36277;32.852;-116.998;2023-01-19T02:34:27;4.00;4.00;2.80
45700;PMS5003;36277;32.852;-116.998;2023-01-19T02:36:55;3.00;3.00;2.00
45700;PMS5003;36277;32.852;-116.998;2023-01-19T02:39:30;2.80;2.80;2.00
45700;PMS5003;36277;32.852;-116.998;2023-01-19T02:42:02;4.00;4.00;3.00
45700;PMS5003;36277;32.852;-116.998;2023-01-19T02:44:53;1.20;1.20;0.00
45700;PMS5003;36277;32.852;-116.998;2023-01-19T02:47:21;3.20;3.20;2.40
45700;PMS5003;36277;32.852;-116.998;2023-01-19T02:49:57;3.00;3.00;2.00
45700;PMS5003;36277;32.852;-116.998;2023-01-19T02:52:24;3.60;3.60;3.00
45700;PMS5003;36277;32.852;-116.998;2023-01-19T03:01:02;4.40;4.40;2.60
45700;PMS5003;36277;32.852;-116.998;2023-01-19T03:03:50;3.00;3.00;2.00
45700;PMS5003;36277;32.852;-116.998;2023-01-19T03:06:35;3.00;3.00;3.00
45700;PMS5003;36277;32.852;-116.998;2023-01-19T03:09:21;3.40;3.40;2.40
45700;PMS5003;36277;32.852;-116.998;2023-01-19T03:11:51;2.80;2.80;2.00
45700;PMS5003;36277;32.852;-116.998;2023-01-19T03:14:27;3.40;3.40;2.60
45700;PMS5003;36277;32.852;-116.998;2023-01-19T03:16:59;3.00;3.00;2.00
45700;PMS5003;36277;32.852;-116.998;2023-01-19T03:19:35;4.00;4.00;2.40
45700;PMS5003;36277;32.852;-116.998;2023-01-19T03:22:10;3.00;3.00;2.40
45700;PMS5003;36277;32.852;-116.998;2023-01-19T03:24:49;3.00;3.00;2.60
45700;PMS5003;36277;32.852;-116.998;2023-01-19T03:27:24;1.60;1.60;1.00
45700;PMS5003;36277;32.852;-116.998;2023-01-19T03:29:55;3.60;3.60;2.80
45700;PMS5003;36277;32.852;-116.998;2023-01-19T03:32:30;3.60;3.60;3.00
45700;PMS5003;36277;32.852;-116.998;2023-01-19T03:35:01;2.60;2.60;2.40
45700;PMS5003;36277;32.852;-116.998;2023-01-19T03:37:33;4.00;4.00;3.00
45700;PMS5003;36277;32.852;-116.998;2023-01-19T03:40:05;3.00;3.00;2.60
45700;PMS5003;36277;32.852;-116.998;2023-01-19T03:42:33;4.20;3.60;2.60
45700;PMS5003;36277;32.852;-116.998;2023-01-19T03:45:02;2.40;2.40;2.00
45700;PMS5003;36277;32.852;-116.998;2023-01-19T03:47:30;3.00;3.00;2.00
45700;PMS5003;36277;32.852;-116.998;2023-01-19T03:49:56;1.00;1.00;1.00
45700;PMS5003;36277;32.852;-116.998;2023-01-19T03:52:29;3.00;3.00;2.20
45700;PMS5003;36277;32.852;-116.998;2023-01-19T03:55:00;3.60;3.60;2.80
45700;PMS5003;36277;32.852;-116.998;2023-01-19T03:57:28;3.00;3.00;2.40
45700;PMS5003;36277;32.852;-116.998;2023-01-19T03:59:55;4.00;4.00;3.00
45700;PMS5003;36277;32.852;-116.998;2023-01-19T04:02:22;5.00;5.00;4.00
45700;PMS5003;36277;32.852;-116.998;2023-01-19T04:04:49;2.80;2.80;2.20
45700;PMS5003;36277;32.852;-116.998;2023-01-19T04:07:15;4.60;4.60;4.00
45700;PMS5003;36277;32.852;-116.998;2023-01-19T04:09:41;4.20;4.20;4.00
45700;PMS5003;36277;32.852;-116.998;2023-01-19T04:12:08;5.60;5.60;4.00
45700;PMS5003;36277;32.852;-116.998;2023-01-19T04:14:34;5.20;5.20;4.00
45700;PMS5003;36277;32.852;-116.998;2023-01-19T04:17:00;6.00;6.00;4.40
45700;PMS5003;36277;32.852;-116.998;2023-01-19T04:19:27;5.00;5.00;4.00
45700;PMS5003;36277;32.852;-116.998;2023-01-19T04:21:53;5.80;5.80;4.80
45700;PMS5003;36277;32.852;-116.998;2023-01-19T04:24:19;4.80;4.80;4.40
45700;PMS5003;36277;32.852;-116.998;2023-01-19T04:26:46;4.00;4.00;3.20
45700;PMS5003;36277;32.852;-116.998;2023-01-19T04:29:12;2.00;2.00;2.00
45700;PMS5003;36277;32.852;-116.998;2023-01-19T04:31:38;4.80;4.80;4.00
45700;PMS5003;36277;32.852;-116.998;2023-01-19T04:34:05;5.20;5.20;4.00
45700;PMS5003;36277;32.852;-116.998;2023-01-19T04:36:31;5.00;5.00;4.20
45700;PMS5003;36277;32.852;-116.998;2023-01-19T04:38:57;4.00;4.00;3.20
45700;PMS5003;36277;32.852;-116.998;2023-01-19T04:41:24;5.80;5.80;5.00
45700;PMS5003;36277;32.852;-116.998;2023-01-19T04:43:50;5.00;5.00;4.20
45700;PMS5003;36277;32.852;-116.998;2023-01-19T04:46:16;4.20;4.20;4.00
45700;PMS5003;36277;32.852;-116.998;2023-01-19T04:48:43;4.60;4.60;4.00
45700;PMS5003;36277;32.852;-116.998;2023-01-19T04:51:09;16.20;16.20;12.80
45700;PMS5003;36277;32.852;-116.998;2023-01-19T04:53:36;29.50;29.50;21.00
45700;PMS5003;36277;32.852;-116.998;2023-01-19T04:56:02;46.00;40.25;28.25
45700;PMS5003;36277;32.852;-116.998;2023-01-19T04:58:28;35.75;33.75;24.75
45700;PMS5003;36277;32.852;-116.998;2023-01-19T05:00:54;35.75;32.50;21.00
45700;PMS5003;36277;32.852;-116.998;2023-01-19T05:03:21;37.25;35.00;24.00
45700;PMS5003;36277;32.852;-116.998;2023-01-19T05:05:47;37.75;34.25;23.75
45700;PMS5003;36277;32.852;-116.998;2023-01-19T05:08:13;38.00;35.00;24.50
45700;PMS5003;36277;32.852;-116.998;2023-01-19T05:10:39;39.75;34.75;25.00
45700;PMS5003;36277;32.852;-116.998;2023-01-19T05:13:06;38.75;35.50;24.75
45700;PMS5003;36277;32.852;-116.998;2023-01-19T05:15:32;33.00;32.25;24.50
45700;PMS5003;36277;32.852;-116.998;2023-01-19T05:17:58;39.00;35.00;24.25
45700;PMS5003;36277;32.852;-116.998;2023-01-19T05:20:24;38.25;34.50;23.00
45700;PMS5003;36277;32.852;-116.998;2023-01-19T05:22:51;36.25;34.00;23.00
45700;PMS5003;36277;32.852;-116.998;2023-01-19T05:25:18;37.25;34.50;22.50
45700;PMS5003;36277;32.852;-116.998;2023-01-19T05:27:45;32.00;31.00;21.00
45700;PMS5003;36277;32.852;-116.998;2023-01-19T05:30:11;38.00;35.00;24.00
45700;PMS5003;36277;32.852;-116.998;2023-01-19T05:32:38;28.00;28.00;20.00
45700;PMS5003;36277;32.852;-116.998;2023-01-19T05:35:05;34.25;32.75;22.00
45700;PMS5003;36277;32.852;-116.998;2023-01-19T05:37:32;33.50;31.50;21.25
45700;PMS5003;36277;32.852;-116.998;2023-01-19T05:39:58;31.00;30.00;20.50
45700;PMS5003;36277;32.852;-116.998;2023-01-19T05:42:24;28.00;28.00;19.25
45700;PMS5003;36277;32.852;-116.998;2023-01-19T05:44:50;27.00;25.25;17.25
45700;PMS5003;36277;32.852;-116.998;2023-01-19T05:47:17;33.25;32.00;21.00
45700;PMS5003;36277;32.852;-116.998;2023-01-19T05:49:43;27.00;27.00;17.75
45700;PMS5003;36277;32.852;-116.998;2023-01-19T05:52:09;28.75;28.75;19.75
45700;PMS5003;36277;32.852;-116.998;2023-01-19T05:54:36;23.00;23.00;17.75
45700;PMS5003;36277;32.852;-116.998;2023-01-19T05:57:04;27.75;27.00;17.25
45700;PMS5003;36277;32.852;-116.998;2023-01-19T05:59:31;30.25;29.50;19.25
45700;PMS5003;36277;32.852;-116.998;2023-01-19T06:01:57;25.25;25.25;17.50
45700;PMS5003;36277;32.852;-116.998;2023-01-19T06:04:24;22.75;22.00;15.25
45700;PMS5003;36277;32.852;-116.998;2023-01-19T06:06:50;24.50;24.50;16.75
45700;PMS5003;36277;32.852;-116.998;2023-01-19T06:09:16;27.67;27.67;18.67
45700;PMS5003;36277;32.852;-116.998;2023-01-19T06:11:43;25.25;25.25;18.50
45700;PMS5003;36277;32.852;-116.998;2023-01-19T06:14:10;20.75;20.50;12.25
45700;PMS5003;36277;32.852;-116.998;2023-01-19T06:16:37;25.25;24.50;16.25
45700;PMS5003;36277;32.852;-116.998;2023-01-19T06:19:03;21.25;20.75;16.25
45700;PMS5003;36277;32.852;-116.998;2023-01-19T06:21:29;20.75;20.75;14.50
45700;PMS5003;36277;32.852;-116.998;2023-01-19T06:23:56;19.00;19.00;13.00
45700;PMS5003;36277;32.852;-116.998;2023-01-19T06:26:23;18.75;18.50;11.75
45700;PMS5003;36277;32.852;-116.998;2023-01-19T06:28:50;23.25;22.25;15.75
45700;PMS5003;36277;32.852;-116.998;2023-01-19T06:31:17;21.25;21.25;15.25
45700;PMS5003;36277;32.852;-116.998;2023-01-19T06:33:43;18.25;18.25;11.75
45700;PMS5003;36277;32.852;-116.998;2023-01-19T06:36:09;16.50;16.50;10.50
45700;PMS5003;36277;32.852;-116.998;2023-01-19T06:38:36;18.00;18.00;9.25
45700;PMS5003;36277;32.852;-116.998;2023-01-19T06:41:02;14.75;14.75;9.75
45700;PMS5003;36277;32.852;-116.998;2023-01-19T06:43:29;13.25;13.25;9.00
45700;PMS5003;36277;32.852;-116.998;2023-01-19T06:45:56;13.20;13.20;9.20
45700;PMS5003;36277;32.852;-116.998;2023-01-19T06:48:24;12.75;12.75;9.00
45700;PMS5003;36277;32.852;-116.998;2023-01-19T06:50:51;10.40;10.40;8.00
45700;PMS5003;36277;32.852;-116.998;2023-01-19T06:53:17;5.80;5.80;5.00
45700;PMS5003;36277;32.852;-116.998;2023-01-19T06:55:46;7.80;7.80;6.00
45700;PMS5003;36277;32.852;-116.998;2023-01-19T06:58:12;7.00;7.00;5.80
45700;PMS5003;36277;32.852;-116.998;2023-01-19T07:00:39;8.00;8.00;5.40
45700;PMS5003;36277;32.852;-116.998;2023-01-19T07:03:05;9.00;9.00;7.00
45700;PMS5003;36277;32.852;-116.998;2023-01-19T07:05:33;6.80;6.80;6.00
45700;PMS5003;36277;32.852;-116.998;2023-01-19T07:08:00;7.00;7.00;5.60
45700;PMS5003;36277;32.852;-116.998;2023-01-19T07:10:27;6.00;6.00;4.00
45700;PMS5003;36277;32.852;-116.998;2023-01-19T07:12:55;6.00;6.00;5.20
45700;PMS5003;36277;32.852;-116.998;2023-01-19T07:15:22;7.20;7.00;6.00
45700;PMS5003;36277;32.852;-116.998;2023-01-19T07:17:48;5.40;5.40;4.40
45700;PMS5003;36277;32.852;-116.998;2023-01-19T07:20:15;5.00;5.00;5.00
45700;PMS5003;36277;32.852;-116.998;2023-01-19T07:22:43;5.00;5.00;5.00
45700;PMS5003;36277;32.852;-116.998;2023-01-19T07:25:13;4.00;4.00;3.00
45700;PMS5003;36277;32.852;-116.998;2023-01-19T07:27:40;6.20;6.20;5.00
45700;PMS5003;36277;32.852;-116.998;2023-01-19T07:30:06;6.20;6.20;5.00
45700;PMS5003;36277;32.852;-116.998;2023-01-19T07:32:33;6.20;6.20;5.20
45700;PMS5003;36277;32.852;-116.998;2023-01-19T07:35:00;8.20;8.20;7.00
45700;PMS5003;36277;32.852;-116.998;2023-01-19T07:37:26;4.60;4.60;4.00
45700;PMS5003;36277;32.852;-116.998;2023-01-19T07:39:52;6.20;6.20;5.60
45700;PMS5003;36277;32.852;-116.998;2023-01-19T07:42:19;4.60;4.60;4.00
45700;PMS5003;36277;32.852;-116.998;2023-01-19T07:44:46;6.80;6.80;5.00
45700;PMS5003;36277;32.852;-116.998;2023-01-19T07:47:12;8.00;8.00;5.80
45700;PMS5003;36277;32.852;-116.998;2023-01-19T07:49:39;5.60;5.60;5.00
45700;PMS5003;36277;32.852;-116.998;2023-01-19T07:52:05;3.80;3.80;3.00
45700;PMS5003;36277;32.852;-116.998;2023-01-19T07:54:31;7.00;7.00;5.00
45700;PMS5003;36277;32.852;-116.998;2023-01-19T07:56:58;5.60;5.60;5.00
45700;PMS5003;36277;32.852;-116.998;2023-01-19T07:59:27;3.00;3.00;2.00
45700;PMS5003;36277;32.852;-116.998;2023-01-19T08:01:55;6.00;6.00;5.00
45700;PMS5003;36277;32.852;-116.998;2023-01-19T08:04:26;7.80;7.80;6.00
45700;PMS5003;36277;32.852;-116.998;2023-01-19T08:06:53;6.00;6.00;5.00
45700;PMS5003;36277;32.852;-116.998;2023-01-19T08:09:21;7.00;7.00;6.00
45700;PMS5003;36277;32.852;-116.998;2023-01-19T08:11:48;5.20;5.20;5.00
45700;PMS5003;36277;32.852;-116.998;2023-01-19T08:14:14;4.80;4.80;4.80
45700;PMS5003;36277;32.852;-116.998;2023-01-19T08:16:41;3.60;3.60;3.60
45700;PMS5003;36277;32.852;-116.998;2023-01-19T08:19:07;2.60;2.60;1.00
45700;PMS5003;36277;32.852;-116.998;2023-01-19T08:21:33;5.60;5.60;4.00
45700;PMS5003;36277;32.852;-116.998;2023-01-19T08:24:00;4.00;4.00;3.00
45700;PMS5003;36277;32.852;-116.998;2023-01-19T08:26:28;5.00;5.00;4.00
45700;PMS5003;36277;32.852;-116.998;2023-01-19T08:28:56;4.40;4.40;3.80
45700;PMS5003;36277;32.852;-116.998;2023-01-19T08:31:25;5.80;5.80;4.20
45700;PMS5003;36277;32.852;-116.998;2023-01-19T08:33:51;5.00;5.00;4.00
45700;PMS5003;36277;32.852;-116.998;2023-01-19T08:36:18;4.80;4.80;3.40
45700;PMS5003;36277;32.852;-116.998;2023-01-19T08:38:45;4.80;4.80;4.00
45700;PMS5003;36277;32.852;-116.998;2023-01-19T08:41:12;5.80;5.80;5.00
45700;PMS5003;36277;32.852;-116.998;2023-01-19T08:43:41;5.40;5.40;4.40
45700;PMS5003;36277;32.852;-116.998;2023-01-19T08:46:08;5.00;5.00;3.20
45700;PMS5003;36277;32.852;-116.998;2023-01-19T08:48:35;5.00;5.00;4.00
45700;PMS5003;36277;32.852;-116.998;2023-01-19T08:51:01;6.20;6.20;5.00
45700;PMS5003;36277;32.852;-116.998;2023-01-19T08:53:27;3.00;3.00;2.00
45700;PMS5003;36277;32.852;-116.998;2023-01-19T08:55:54;4.60;4.60;4.00
45700;PMS5003;36277;32.852;-116.998;2023-01-19T08:58:22;3.80;3.80;3.00
45700;PMS5003;36277;32.852;-116.998;2023-01-19T09:00:48;6.00;6.00;5.00
45700;PMS5003;36277;32.852;-116.998;2023-01-19T09:03:17;5.00;5.00;4.60
45700;PMS5003;36277;32.852;-116.998;2023-01-19T09:05:45;5.20;5.20;4.80
45700;PMS5003;36277;32.852;-116.998;2023-01-19T09:08:11;6.00;6.00;5.00
45700;PMS5003;36277;32.852;-116.998;2023-01-19T09:10:42;4.25;4.25;4.00
45700;PMS5003;36277;32.852;-116.998;2023-01-19T09:13:11;4.00;4.00;3.40
45700;PMS5003;36277;32.852;-116.998;2023-01-19T09:15:38;3.80;3.80;3.40
45700;PMS5003;36277;32.852;-116.998;2023-01-19T09:18:05;4.20;4.20;4.00
45700;PMS5003;36277;32.852;-116.998;2023-01-19T09:20:34;5.00;5.00;4.00
45700;PMS5003;36277;32.852;-116.998;2023-01-19T09:23:03;4.80;4.80;3.80
45700;PMS5003;36277;32.852;-116.998;2023-01-19T09:25:30;4.00;4.00;3.40
45700;PMS5003;36277;32.852;-116.998;2023-01-19T09:28:00;4.00;4.00;3.00
45700;PMS5003;36277;32.852;-116.998;2023-01-19T09:30:26;3.60;3.60;3.00
45700;PMS5003;36277;32.852;-116.998;2023-01-19T09:32:53;4.00;4.00;4.00
45700;PMS5003;36277;32.852;-116.998;2023-01-19T09:35:20;3.40;3.40;2.80
45700;PMS5003;36277;32.852;-116.998;2023-01-19T09:37:46;3.00;3.00;3.00
45700;PMS5003;36277;32.852;-116.998;2023-01-19T09:40:13;3.60;3.60;3.00
45700;PMS5003;36277;32.852;-116.998;2023-01-19T09:42:46;5.00;5.00;4.00
45700;PMS5003;36277;32.852;-116.998;2023-01-19T09:45:34;5.00;5.00;4.00
45700;PMS5003;36277;32.852;-116.998;2023-01-19T09:48:07;3.20;3.20;3.00
45700;PMS5003;36277;32.852;-116.998;2023-01-19T09:51:01;2.80;2.80;2.80
45700;PMS5003;36277;32.852;-116.998;2023-01-19T09:53:50;3.00;3.00;2.00
45700;PMS5003;36277;32.852;-116.998;2023-01-19T09:56:37;4.00;4.00;3.25
45700;PMS5003;36277;32.852;-116.998;2023-01-19T09:59:20;4.00;4.00;4.00
45700;PMS5003;36277;32.852;-116.998;2023-01-19T10:04:38;5.00;5.00;4.00
45700;PMS5003;36277;32.852;-116.998;2023-01-19T10:12:33;2.50;2.50;2.50
45700;PMS5003;36277;32.852;-116.998;2023-01-19T10:18:11;1.00;1.00;1.00
45700;PMS5003;36277;32.852;-116.998;2023-01-19T10:20:42;1.00;1.00;0.50
45700;PMS5003;36277;32.852;-116.998;2023-01-19T10:23:37;4.00;4.00;3.00
45700;PMS5003;36277;32.852;-116.998;2023-01-19T10:26:17;3.25;3.25;3.00
45700;PMS5003;36277;32.852;-116.998;2023-01-19T10:28:54;2.50;2.50;2.00
45700;PMS5003;36277;32.852;-116.998;2023-01-19T10:31:26;4.00;4.00;3.25
45700;PMS5003;36277;32.852;-116.998;2023-01-19T10:33:52;3.00;3.00;3.00
45700;PMS5003;36277;32.852;-116.998;2023-01-19T10:36:23;3.50;3.50;3.00
45700;PMS5003;36277;32.852;-116.998;2023-01-19T10:38:58;3.00;3.00;3.00
45700;PMS5003;36277;32.852;-116.998;2023-01-19T10:41:26;4.00;4.00;3.75
45700;PMS5003;36277;32.852;-116.998;2023-01-19T10:44:07;3.50;3.50;3.50
45700;PMS5003;36277;32.852;-116.998;2023-01-19T10:46:52;3.00;3.00;2.50
45700;PMS5003;36277;32.852;-116.998;2023-01-19T10:51:53;3.00;3.00;2.75
45700;PMS5003;36277;32.852;-116.998;2023-01-19T10:54:21;2.00;2.00;1.75
45700;PMS5003;36277;32.852;-116.998;2023-01-19T10:56:56;3.00;3.00;3.00
45700;PMS5003;36277;32.852;-116.998;2023-01-19T10:59:31;3.00;3.00;3.00
45700;PMS5003;36277;32.852;-116.998;2023-01-19T11:02:17;2.00;2.00;2.00
45700;PMS5003;36277;32.852;-116.998;2023-01-19T11:04:54;3.00;3.00;2.75
45700;PMS5003;36277;32.852;-116.998;2023-01-19T11:20:50;3.00;3.00;2.00
45700;PMS5003;36277;32.852;-116.998;2023-01-19T11:23:21;2.75;2.75;2.00
45700;PMS5003;36277;32.852;-116.998;2023-01-19T11:26:08;3.00;3.00;2.25
45700;PMS5003;36277;32.852;-116.998;2023-01-19T11:28:48;2.00;2.00;2.00
45700;PMS5003;36277;32.852;-116.998;2023-01-19T11:31:52;2.00;2.00;2.00
45700;PMS5003;36277;32.852;-116.998;2023-01-19T11:34:26;3.00;3.00;2.00
45700;PMS5003;36277;32.852;-116.998;2023-01-19T11:37:00;2.00;2.00;2.00
45700;PMS5003;36277;32.852;-116.998;2023-01-19T11:39:29;3.00;3.00;3.00
45700;PMS5003;36277;32.852;-116.998;2023-01-19T11:42:09;3.00;3.00;3.00
45700;PMS5003;36277;32.852;-116.998;2023-01-19T11:44:45;2.00;2.00;2.00
45700;PMS5003;36277;32.852;-116.998;2023-01-19T11:47:17;2.50;2.50;2.00
45700;PMS5003;36277;32.852;-116.998;2023-01-19T11:50:26;2.00;2.00;2.00
45700;PMS5003;36277;32.852;-116.998;2023-01-19T11:53:00;2.00;2.00;2.00
45700;PMS5003;36277;32.852;-116.998;2023-01-19T11:55:52;2.00;2.00;2.00
45700;PMS5003;36277;32.852;-116.998;2023-01-19T11:58:21;2.75;2.75;2.50
45700;PMS5003;36277;32.852;-116.998;2023-01-19T12:01:01;2.00;2.00;2.00
45700;PMS5003;36277;32.852;-116.998;2023-01-19T12:03:44;0.00;0.00;0.00
45700;PMS5003;36277;32.852;-116.998;2023-01-19T12:06:21;2.00;2.00;2.00
45700;PMS5003;36277;32.852;-116.998;2023-01-19T12:09:11;2.25;2.25;1.75
45700;PMS5003;36277;32.852;-116.998;2023-01-19T12:11:57;2.00;2.00;2.00
45700;PMS5003;36277;32.852;-116.998;2023-01-19T12:14:42;2.25;2.25;2.00
45700;PMS5003;36277;32.852;-116.998;2023-01-19T12:17:25;2.25;2.25;2.25
45700;PMS5003;36277;32.852;-116.998;2023-01-19T12:19:57;2.00;2.00;1.75
45700;PMS5003;36277;32.852;-116.998;2023-01-19T12:22:28;2.50;2.50;2.50
45700;PMS5003;36277;32.852;-116.998;2023-01-19T12:25:12;2.00;2.00;2.00
45700;PMS5003;36277;32.852;-116.998;2023-01-19T12:27:42;4.00;4.00;3.00
45700;PMS5003;36277;32.852;-116.998;2023-01-19T12:30:18;2.00;2.00;2.00
45700;PMS5003;36277;32.852;-116.998;2023-01-19T12:32:45;2.00;2.00;2.00
45700;PMS5003;36277;32.852;-116.998;2023-01-19T12:38:31;2.75;2.75;2.75
45700;PMS5003;36277;32.852;-116.998;2023-01-19T12:41:21;2.00;2.00;2.00
45700;PMS5003;36277;32.852;-116.998;2023-01-19T12:46:49;2.00;2.00;1.00
45700;PMS5003;36277;32.852;-116.998;2023-01-19T12:55:18;2.00;2.00;1.00
45700;PMS5003;36277;32.852;-116.998;2023-01-19T13:00:32;1.75;1.75;1.50
45700;PMS5003;36277;32.852;-116.998;2023-01-19T13:06:01;1.00;1.00;1.00
45700;PMS5003;36277;32.852;-116.998;2023-01-19T13:08:53;2.00;2.00;1.50
45700;PMS5003;36277;32.852;-116.998;2023-01-19T13:11:21;1.75;1.75;1.50
45700;PMS5003;36277;32.852;-116.998;2023-01-19T13:18:47;0.25;0.25;0.00
45700;PMS5003;36277;32.852;-116.998;2023-01-19T13:21:27;2.00;2.00;2.00
45700;PMS5003;36277;32.852;-116.998;2023-01-19T13:24:04;1.00;1.00;1.00
45700;PMS5003;36277;32.852;-116.998;2023-01-19T13:26:33;2.00;2.00;1.25
45700;PMS5003;36277;32.852;-116.998;2023-01-19T13:31:47;1.00;1.00;1.00
45700;PMS5003;36277;32.852;-116.998;2023-01-19T13:34:15;1.00;1.00;1.00
45700;PMS5003;36277;32.852;-116.998;2023-01-19T13:36:45;1.00;1.00;1.00
45700;PMS5003;36277;32.852;-116.998;2023-01-19T13:39:29;1.00;1.00;1.00
45700;PMS5003;36277;32.852;-116.998;2023-01-19T13:42:04;2.00;2.00;2.00
45700;PMS5003;36277;32.852;-116.998;2023-01-19T13:44:40;1.00;1.00;1.00
45700;PMS5003;36277;32.852;-116.998;2023-01-19T13:47:14;1.00;1.00;1.00
45700;PMS5003;36277;32.852;-116.998;2023-01-19T13:49:45;2.00;2.00;2.00
45700;PMS5003;36277;32.852;-116.998;2023-01-19T13:52:19;2.00;2.00;1.50
45700;PMS5003;36277;32.852;-116.998;2023-01-19T13:54:47;1.00;1.00;1.00
45700;PMS5003;36277;32.852;-116.998;2023-01-19T13:57:21;2.00;2.00;1.50
45700;PMS5003;36277;32.852;-116.998;2023-01-19T14:05:37;1.00;1.00;1.00
45700;PMS5003;36277;32.852;-116.998;2023-01-19T14:15:44;1.00;1.00;0.75
45700;PMS5003;36277;32.852;-116.998;2023-01-19T14:20:57;1.75;1.75;1.00
45700;PMS5003;36277;32.852;-116.998;2023-01-19T14:23:45;2.00;2.00;1.25
45700;PMS5003;36277;32.852;-116.998;2023-01-19T14:34:35;1.25;1.25;0.50
45700;PMS5003;36277;32.852;-116.998;2023-01-19T14:37:20;1.50;1.50;1.50
45700;PMS5003;36277;32.852;-116.998;2023-01-19T14:42:42;2.00;2.00;2.00
45700;PMS5003;36277;32.852;-116.998;2023-01-19T14:45:21;1.00;1.00;1.00
45700;PMS5003;36277;32.852;-116.998;2023-01-19T14:48:01;1.00;1.00;1.00
45700;PMS5003;36277;32.852;-116.998;2023-01-19T14:50:42;1.50;1.50;1.00
45700;PMS5003;36277;32.852;-116.998;2023-01-19T14:53:18;3.00;3.00;3.00
45700;PMS5003;36277;32.852;-116.998;2023-01-19T14:55:51;2.50;2.50;2.00
45700;PMS5003;36277;32.852;-116.998;2023-01-19T14:58:22;2.75;2.75;2.00
45700;PMS5003;36277;32.852;-116.998;2023-01-19T15:00:50;2.00;2.00;1.50
45700;PMS5003;36277;32.852;-116.998;2023-01-19T15:03:20;2.00;2.00;2.00
45700;PMS5003;36277;32.852;-116.998;2023-01-19T15:05:51;3.00;3.00;3.00
45700;PMS5003;36277;32.852;-116.998;2023-01-19T15:08:30;3.00;3.00;1.75
45700;PMS5003;36277;32.852;-116.998;2023-01-19T15:11:06;2.50;2.50;2.00
45700;PMS5003;36277;32.852;-116.998;2023-01-19T15:13:36;2.25;2.25;2.00
45700;PMS5003;36277;32.852;-116.998;2023-01-19T15:16:04;2.00;2.00;2.00
45700;PMS5003;36277;32.852;-116.998;2023-01-19T15:18:33;2.50;2.50;2.00
45700;PMS5003;36277;32.852;-116.998;2023-01-19T15:21:00;2.00;2.00;1.50
45700;PMS5003;36277;32.852;-116.998;2023-01-19T15:23:30;1.25;1.25;1.25
45700;PMS5003;36277;32.852;-116.998;2023-01-19T15:25:58;2.25;2.25;2.00
45700;PMS5003;36277;32.852;-116.998;2023-01-19T15:28:25;2.00;2.00;1.50
45700;PMS5003;36277;32.852;-116.998;2023-01-19T15:30:52;2.75;2.75;2.25
45700;PMS5003;36277;32.852;-116.998;2023-01-19T15:33:22;1.00;1.00;1.00